Pago Pago, AS

4:08 AM SST on April 25, 2017 (GMT -1100)
Malaeimi | | Change Station

Elev 217 ft 14.32 °S, 170.74 °W | Updated 8 minutes ago

Overcast
Overcast
80.5 °F
Feels Like 82 °F
N
1.0
Wind Variable Wind from North
Gusts 1.0 mph

Today
High -- | Low -- °F
--% Chance of Precip.
Yesterday
High -- | Low -- °F
Precip. -- in
Pressure 30.01 in
Visibility 10.0 miles
Clouds Clear
Heat Index 82 °F
Dew Point 62 °F
Humidity 54%
Rainfall 0.00 in
Snow Depth Not available.
6:31 AM 6:10 PM
Waning Crescent, 1% visible
METAR PHKO 251453Z AUTO 12009KT 10SM CLR 22/15 A3001 RMK AO2 SLP162 T02220150 55008 TSNO $
Pressure 30.01 in
Visibility 10.0 miles
Clouds Clear
Heat Index 82 °F
Dew Point 62 °F
Humidity 54%
Rainfall 0.00 in
Snow Depth Not available.
6:31 AM 6:10 PM
Waning Crescent, 1% visible
METAR PHKO 251453Z AUTO 12009KT 10SM CLR 22/15 A3001 RMK AO2 SLP162 T02220150 55008 TSNO $

Get Severe Weather Alerts

Thanks for signing up!

Be on the lookout for a verification email in your inbox.

You'll start receiving the daily forecast at 8 AM.

×

10-Day Weather Forecast

No radar image for this location.
×

Almanac

Astronomy

Apr. 25, 2017 Rise Set
Actual Time
Civil Twilight
Nautical Twilight
Astronomical Twilight
Moon
Length of Visible Light
Length of Day
Tomorrow will be .
, % of the Moon is Illuminated

Today's Extremes

State Highs State Lows

Community

WunderPhotos

WunderBlog® & News

Nearby

Air Quality

  Air Quality AQ Index Pollutant
Not available.

Snow Depth

Station Depth Elevation

Earthquake Activity

City Distance Mag. Time & Date
Minimum magnitude displayed is 2.5.

Coastal Water Temperatures

Place Temperature

Stations

Nearby Weather Stations

Station Location Temp. Windchill Dew Point Humidity Wind Precip. Elev Updated Type
                   

Watches & Warnings

There are currently no watches in effect.